createdAt,value
2019-01-17T00:02:47.292Z,6.82
2019-01-17T00:09:11.901Z,6.78
2019-01-17T00:15:40.624Z,6.84
2019-01-17T00:22:05.204Z,6.82
2019-01-17T00:28:34.128Z,6.79
2019-01-17T00:35:07.963Z,6.79
2019-01-17T00:41:44.739Z,6.80
2019-01-17T00:48:10.973Z,6.79
2019-01-17T00:54:38.564Z,6.72
2019-01-17T01:01:16.300Z,6.72
2019-01-17T01:07:41.306Z,6.66
2019-01-17T01:14:06.068Z,6.61
2019-01-17T01:20:23.140Z,6.57
2019-01-17T01:26:57.024Z,6.62
2019-01-17T01:33:39.792Z,6.64
2019-01-17T01:40:04.480Z,6.69
2019-01-17T01:46:29.321Z,6.69
2019-01-17T01:52:55.158Z,6.74
2019-01-17T01:59:00.940Z,6.72
2019-01-17T02:05:09.301Z,6.73
2019-01-17T02:11:15.088Z,6.76
2019-01-17T02:17:21.177Z,6.76
2019-01-17T02:23:27.092Z,6.78
2019-01-17T02:29:32.928Z,6.79
2019-01-17T02:35:38.788Z,6.85
2019-01-17T02:41:44.631Z,6.90
2019-01-17T02:47:50.526Z,6.93
2019-01-17T02:53:56.603Z,6.97
2019-01-17T03:00:02.544Z,6.97
2019-01-17T03:06:08.676Z,6.97
2019-01-17T03:12:14.503Z,7.03
2019-01-17T03:18:20.276Z,7.05
2019-01-17T03:24:26.324Z,7.08
2019-01-17T03:30:32.198Z,7.04
2019-01-17T03:36:38.209Z,7.02
2019-01-17T03:42:45.990Z,7.01
2019-01-17T03:48:51.695Z,6.99
2019-01-17T03:54:57.501Z,7.01
2019-01-17T04:01:03.288Z,7.05
2019-01-17T04:07:09.635Z,7.06
2019-01-17T04:13:18.562Z,7.08
2019-01-17T04:19:24.379Z,7.10
2019-01-17T04:25:30.071Z,7.08
2019-01-17T04:31:36.035Z,7.09
2019-01-17T04:37:41.768Z,7.06
2019-01-17T04:43:47.612Z,7.03
2019-01-17T04:49:53.846Z,7.00
2019-01-17T04:55:59.814Z,6.96
2019-01-17T05:02:06.717Z,6.97
2019-01-17T05:08:13.034Z,6.99
2019-01-17T05:14:19.097Z,7.01
2019-01-17T05:20:24.905Z,7.05
2019-01-17T05:26:32.455Z,7.06
2019-01-17T05:32:38.352Z,7.03
2019-01-17T05:38:44.795Z,6.98
2019-01-17T05:44:50.575Z,6.97
2019-01-17T05:50:56.452Z,7.03
2019-01-17T05:57:02.276Z,6.99
2019-01-17T06:03:08.531Z,7.00
2019-01-17T06:09:16.250Z,7.06
2019-01-17T06:15:26.498Z,7.08
2019-01-17T06:21:32.347Z,7.11
2019-01-17T06:27:38.476Z,7.08
2019-01-17T06:33:45.840Z,7.12
2019-01-17T06:39:51.579Z,7.13
2019-01-17T06:45:57.376Z,7.06
2019-01-17T06:52:03.156Z,7.05
2019-01-17T06:58:08.905Z,7.01
2019-01-17T07:04:14.735Z,6.89
2019-01-17T07:10:20.986Z,6.93
2019-01-17T07:16:26.735Z,6.91
2019-01-17T07:22:32.386Z,6.83
2019-01-17T07:28:38.032Z,6.88
2019-01-17T07:34:43.733Z,6.88
2019-01-17T07:40:49.554Z,6.90
2019-01-17T07:46:57.588Z,6.95
2019-01-17T07:53:03.452Z,6.93
2019-01-17T07:59:09.342Z,6.92
2019-01-17T08:05:15.259Z,6.98
2019-01-17T08:11:20.960Z,7.02
2019-01-17T08:17:26.809Z,6.95
2019-01-17T08:23:34.673Z,6.89
2019-01-17T08:29:40.083Z,6.91
2019-01-17T08:35:45.967Z,6.99
2019-01-17T08:41:52.108Z,6.92
2019-01-17T08:47:57.738Z,6.99
2019-01-17T08:54:04.761Z,7.10
2019-01-17T09:00:17.634Z,7.18
2019-01-17T09:06:23.459Z,7.30
2019-01-17T09:12:29.310Z,7.34
2019-01-17T09:18:35.359Z,7.33
2019-01-17T09:24:42.167Z,7.34
2019-01-17T09:30:47.880Z,7.35
2019-01-17T09:36:56.758Z,7.40
2019-01-17T09:43:02.536Z,7.38
2019-01-17T09:49:08.887Z,7.34
2019-01-17T09:55:15.067Z,7.34
2019-01-17T10:01:20.880Z,7.34
2019-01-17T10:07:26.641Z,7.19
2019-01-17T10:13:32.599Z,7.14
2019-01-17T10:20:39.883Z,7.07
2019-01-17T10:27:28.232Z,6.84
2019-01-17T10:33:59.759Z,6.74
2019-01-17T10:41:29.517Z,6.42
2019-01-17T10:48:25.247Z,6.26
2019-01-17T10:55:09.037Z,6.03
2019-01-17T11:02:23.178Z,5.77
2019-01-17T11:09:28.139Z,5.77
2019-01-17T11:16:13.950Z,5.84
2019-01-17T11:23:11.972Z,6.04
2019-01-17T11:30:05.116Z,5.92
2019-01-17T11:36:51.279Z,5.99
2019-01-17T11:44:02.034Z,5.85
2019-01-17T11:51:16.986Z,5.85
2019-01-17T11:58:02.648Z,5.92
2019-01-17T12:04:31.334Z,5.85
2019-01-17T12:10:37.234Z,5.61
2019-01-17T12:16:43.754Z,5.71
2019-01-17T12:22:49.544Z,5.69
2019-01-17T12:28:55.460Z,5.83
2019-01-17T12:35:01.500Z,5.79
2019-01-17T12:41:07.612Z,5.87
2019-01-17T12:47:13.358Z,5.95
2019-01-17T12:53:19.131Z,5.89
2019-01-17T13:06:01.199Z,5.80
2019-01-17T13:12:07.324Z,5.69
2019-01-17T13:18:13.269Z,5.71
2019-01-17T13:24:19.880Z,5.53
2019-01-17T13:30:25.829Z,5.60
2019-01-17T13:36:31.561Z,5.39
2019-01-17T13:42:37.555Z,5.29
2019-01-17T13:48:43.271Z,5.24
2019-01-17T13:54:49.166Z,5.34
2019-01-17T14:00:55.131Z,5.40
2019-01-17T14:07:00.845Z,5.46
2019-01-17T14:13:06.811Z,5.35
2019-01-17T14:19:12.754Z,5.42
2019-01-17T14:25:18.567Z,5.39
2019-01-17T14:31:24.306Z,5.30
2019-01-17T14:37:29.984Z,5.36
2019-01-17T14:43:35.753Z,5.34
2019-01-17T14:49:41.524Z,5.52
2019-01-17T14:55:47.281Z,5.55
2019-01-17T15:01:53.773Z,5.54
2019-01-17T15:07:59.788Z,4.76
2019-01-17T15:14:06.097Z,4.28
2019-01-17T15:20:16.088Z,4.39
2019-01-17T15:26:21.889Z,4.34
2019-01-17T15:32:27.806Z,4.39
2019-01-17T15:38:33.881Z,4.40
2019-01-17T15:44:39.869Z,4.44
2019-01-17T15:50:48.773Z,4.44
2019-01-17T15:56:54.650Z,4.46
2019-01-17T16:03:00.654Z,4.36
2019-01-17T16:09:08.591Z,4.10
2019-01-17T16:15:19.408Z,3.97
2019-01-17T16:21:25.390Z,3.81
2019-01-17T16:27:31.365Z,3.80
2019-01-17T16:33:37.181Z,3.80
2019-01-17T16:39:43.039Z,3.83
2019-01-17T16:45:48.951Z,3.82
2019-01-17T16:51:55.068Z,3.85
2019-01-17T16:58:01.283Z,3.89
2019-01-17T17:04:09.184Z,3.94
2019-01-17T17:10:20.999Z,4.11
2019-01-17T17:16:30.484Z,4.23
2019-01-17T17:22:39.019Z,4.38
2019-01-17T17:28:44.935Z,4.31
2019-01-17T17:34:50.707Z,4.25
2019-01-17T17:40:56.568Z,4.28
2019-01-17T17:47:08.305Z,4.30
2019-01-17T17:53:14.589Z,4.28
2019-01-17T17:59:20.563Z,4.28
2019-01-17T18:05:26.372Z,4.30
2019-01-17T18:11:32.175Z,4.33
2019-01-17T18:17:38.435Z,4.24
2019-01-17T18:23:46.608Z,4.17
2019-01-17T18:29:57.024Z,4.17
2019-01-17T18:36:03.416Z,4.23
2019-01-17T18:42:11.148Z,4.24
2019-01-17T18:48:17.399Z,4.23
2019-01-17T18:54:24.179Z,4.21
2019-01-17T19:00:33.800Z,4.14
2019-01-17T19:06:42.078Z,3.98
2019-01-17T19:12:47.992Z,3.88
2019-01-17T19:18:53.788Z,3.95
2019-01-17T19:25:01.277Z,3.90
2019-01-17T19:31:07.611Z,3.79
2019-01-17T19:37:16.463Z,3.72
2019-01-17T19:43:25.051Z,3.60
2019-01-17T19:49:31.050Z,3.57
2019-01-17T19:55:37.349Z,3.58
2019-01-17T20:01:46.162Z,3.62
2019-01-17T20:07:57.887Z,3.65
2019-01-17T20:14:05.790Z,4.34
2019-01-17T20:20:14.187Z,3.80
2019-01-17T20:26:20.574Z,3.57
2019-01-17T20:32:27.176Z,3.48
2019-01-17T20:38:33.145Z,3.35
2019-01-17T20:44:40.297Z,3.44
2019-01-17T20:50:46.259Z,3.48
2019-01-17T20:56:54.026Z,3.45
2019-01-17T21:03:02.605Z,3.33
2019-01-17T21:09:13.293Z,3.13
2019-01-17T21:15:19.419Z,3.01
2019-01-17T21:21:25.802Z,2.92
2019-01-17T21:27:33.770Z,2.82
2019-01-17T21:33:39.969Z,2.73
2019-01-17T21:39:48.464Z,2.65
2019-01-17T21:45:59.309Z,2.58
2019-01-17T21:52:05.033Z,2.49
2019-01-17T21:58:10.938Z,2.42
2019-01-17T22:04:17.219Z,2.32
2019-01-17T22:10:26.178Z,2.37
2019-01-17T22:16:33.150Z,2.35
2019-01-17T22:22:38.989Z,2.34
2019-01-17T22:28:45.186Z,2.38
2019-01-17T22:35:10.243Z,2.37
2019-01-17T22:41:17.068Z,2.34
2019-01-17T22:47:23.130Z,2.30
2019-01-17T22:53:31.215Z,2.21
2019-01-17T22:59:36.800Z,2.15
2019-01-17T23:05:45.732Z,2.11
2019-01-17T23:11:53.263Z,2.09
2019-01-17T23:17:59.103Z,2.11
2019-01-17T23:24:05.001Z,2.07
2019-01-17T23:30:12.795Z,2.11
2019-01-17T23:36:19.590Z,2.24
2019-01-17T23:42:25.518Z,2.26
2019-01-17T23:48:31.315Z,2.20
2019-01-17T23:54:37.098Z,2.19
